createdAt,value
2023-05-09T00:00:09.913Z,94975.00
2023-05-09T00:01:09.944Z,94971.00
2023-05-09T00:02:10.027Z,94975.00
2023-05-09T00:03:09.979Z,94973.00
2023-05-09T00:04:10.005Z,94973.00
2023-05-09T00:05:09.987Z,94971.00
2023-05-09T00:06:09.970Z,94967.00
2023-05-09T00:07:10.067Z,94969.00
2023-05-09T00:08:10.000Z,94967.00
2023-05-09T00:09:09.973Z,94967.00
2023-05-09T00:10:09.979Z,94965.00
2023-05-09T00:11:09.980Z,94967.00
2023-05-09T00:12:09.995Z,94965.00
2023-05-09T00:13:10.006Z,94965.00
2023-05-09T00:14:10.029Z,94963.00
2023-05-09T00:15:10.076Z,94963.00
2023-05-09T00:16:10.023Z,94963.00
2023-05-09T00:17:09.996Z,94961.00
2023-05-09T00:18:09.988Z,94961.00
2023-05-09T00:19:10.007Z,94961.00
2023-05-09T00:20:10.025Z,94961.00
2023-05-09T00:21:10.015Z,94961.00
2023-05-09T00:22:09.993Z,94957.00
2023-05-09T00:23:10.063Z,94959.00
2023-05-09T00:24:09.999Z,94957.00
2023-05-09T00:25:10.057Z,94957.00
2023-05-09T00:26:10.010Z,94953.00
2023-05-09T00:27:09.997Z,94953.00
2023-05-09T00:28:09.992Z,94953.00
2023-05-09T00:29:09.974Z,94953.00
2023-05-09T00:30:10.012Z,94953.00
2023-05-09T00:31:10.003Z,94951.00
2023-05-09T00:32:10.052Z,94951.00
2023-05-09T00:33:10.027Z,94948.00
2023-05-09T00:34:09.990Z,94949.00
2023-05-09T00:35:10.175Z,94948.00
2023-05-09T00:36:10.008Z,94951.00
2023-05-09T00:37:10.012Z,94951.00
2023-05-09T00:38:10.029Z,94951.00
2023-05-09T00:39:10.107Z,94951.00
2023-05-09T00:40:10.043Z,94949.00
2023-05-09T00:41:10.058Z,94949.00
2023-05-09T00:42:10.088Z,94948.00
2023-05-09T00:43:10.087Z,94944.00
2023-05-09T00:44:10.095Z,94946.00
2023-05-09T00:45:10.121Z,94944.00
2023-05-09T00:46:10.168Z,94942.00
2023-05-09T00:47:10.134Z,94946.00
2023-05-09T00:48:10.174Z,94940.00
2023-05-09T00:49:10.170Z,94942.00
2023-05-09T00:50:10.179Z,94944.00
2023-05-09T00:51:10.183Z,94942.00
2023-05-09T00:52:10.204Z,94940.00
2023-05-09T00:53:10.223Z,94940.00
2023-05-09T00:54:10.254Z,94936.00
2023-05-09T00:55:10.330Z,94936.00
2023-05-09T00:56:10.261Z,94936.00
2023-05-09T00:57:10.283Z,94936.00
2023-05-09T00:58:10.275Z,94934.00
2023-05-09T00:59:10.305Z,94928.00
2023-05-09T01:00:10.325Z,94936.00
2023-05-09T01:01:10.404Z,94934.00
2023-05-09T01:02:10.322Z,94932.00
2023-05-09T01:03:10.429Z,94934.00
2023-05-09T01:04:10.349Z,94928.00
2023-05-09T01:05:10.371Z,94928.00
2023-05-09T01:06:10.480Z,94928.00
2023-05-09T01:07:10.391Z,94926.00
2023-05-09T01:08:10.416Z,94924.00
2023-05-09T01:09:10.431Z,94926.00
2023-05-09T01:10:10.443Z,94926.00
2023-05-09T01:11:10.551Z,94922.00
2023-05-09T01:12:10.478Z,94922.00
2023-05-09T01:13:10.607Z,94922.00
2023-05-09T01:14:10.534Z,94920.00
2023-05-09T01:15:10.550Z,94920.00
2023-05-09T01:16:10.592Z,94920.00
2023-05-09T01:17:10.592Z,94916.00
2023-05-09T01:18:10.614Z,94918.00
2023-05-09T01:19:10.635Z,94916.00
2023-05-09T01:20:10.628Z,94916.00
2023-05-09T01:21:10.652Z,94916.00
2023-05-09T01:22:10.654Z,94914.00
2023-05-09T01:23:10.668Z,94916.00
2023-05-09T01:24:10.707Z,94914.00
2023-05-09T01:25:10.693Z,94916.00
2023-05-09T01:26:10.718Z,94918.00
2023-05-09T01:27:10.802Z,94916.00
2023-05-09T01:28:10.737Z,94914.00
2023-05-09T01:29:10.764Z,94914.00
2023-05-09T01:30:10.756Z,94912.00
2023-05-09T01:31:10.801Z,94912.00
2023-05-09T01:32:10.793Z,94912.00
2023-05-09T01:33:10.843Z,94912.00
2023-05-09T01:34:10.849Z,94910.00
2023-05-09T01:35:10.866Z,94912.00
2023-05-09T01:36:10.886Z,94914.00
2023-05-09T01:37:10.920Z,94914.00
2023-05-09T01:38:10.928Z,94914.00
2023-05-09T01:39:10.940Z,94914.00
2023-05-09T01:40:10.978Z,94912.00
2023-05-09T01:41:11.006Z,94910.00
2023-05-09T01:42:11.005Z,94910.00
2023-05-09T01:43:11.110Z,94910.00
2023-05-09T01:44:11.118Z,94908.00
2023-05-09T01:45:11.089Z,94912.00
2023-05-09T01:46:11.121Z,94912.00
2023-05-09T01:47:11.147Z,94912.00
2023-05-09T01:48:11.169Z,94912.00
2023-05-09T01:49:11.181Z,94910.00
2023-05-09T01:50:11.222Z,94914.00
2023-05-09T01:51:11.232Z,94916.00
2023-05-09T01:52:11.279Z,94912.00
2023-05-09T01:53:11.272Z,94912.00
2023-05-09T01:54:11.271Z,94910.00
2023-05-09T01:55:11.308Z,94910.00
2023-05-09T01:56:11.322Z,94908.00
2023-05-09T01:57:11.366Z,94908.00
2023-05-09T01:58:11.373Z,94908.00
2023-05-09T01:59:11.472Z,94902.00
2023-05-09T02:00:11.423Z,94901.00
2023-05-09T02:01:11.496Z,94901.00
2023-05-09T02:02:11.499Z,94902.00
2023-05-09T02:03:11.505Z,94901.00
2023-05-09T02:04:11.498Z,94902.00
2023-05-09T02:05:11.683Z,94899.00
2023-05-09T02:06:11.524Z,94897.00
2023-05-09T02:07:11.580Z,94901.00
2023-05-09T02:08:11.584Z,94901.00
2023-05-09T02:09:11.586Z,94901.00
2023-05-09T02:10:11.627Z,94897.00
2023-05-09T02:11:11.636Z,94897.00
2023-05-09T02:12:11.635Z,94891.00
2023-05-09T02:13:11.690Z,94889.00
2023-05-09T02:14:11.690Z,94891.00
2023-05-09T02:15:11.973Z,94891.00
2023-05-09T02:16:11.728Z,94887.00
2023-05-09T02:17:11.698Z,94889.00
2023-05-09T02:18:11.711Z,94891.00
2023-05-09T02:19:11.730Z,94887.00
2023-05-09T02:20:11.739Z,94889.00
2023-05-09T02:21:11.909Z,94887.00
2023-05-09T02:22:11.762Z,94879.00
2023-05-09T02:23:11.781Z,94879.00
2023-05-09T02:24:11.790Z,94887.00
2023-05-09T02:25:12.010Z,94877.00
2023-05-09T02:26:11.821Z,94879.00
2023-05-09T02:27:11.841Z,94879.00
2023-05-09T02:28:11.887Z,94877.00
2023-05-09T02:29:11.883Z,94877.00
2023-05-09T02:30:11.933Z,94875.00
2023-05-09T02:31:11.976Z,94875.00
2023-05-09T02:32:11.948Z,94875.00
2023-05-09T02:33:11.978Z,94877.00
2023-05-09T02:34:11.941Z,94879.00
2023-05-09T02:35:12.020Z,94875.00
2023-05-09T02:36:11.974Z,94887.00
2023-05-09T02:37:11.997Z,94879.00
2023-05-09T02:38:12.010Z,94877.00
2023-05-09T02:39:12.010Z,94877.00
2023-05-09T02:40:12.032Z,94877.00
2023-05-09T02:41:12.040Z,94875.00
2023-05-09T02:42:12.105Z,94877.00
2023-05-09T02:43:12.093Z,94875.00
2023-05-09T02:44:12.114Z,94873.00
2023-05-09T02:45:12.230Z,94873.00
2023-05-09T02:46:12.166Z,94871.00
2023-05-09T02:47:12.219Z,94873.00
2023-05-09T02:48:12.180Z,94871.00
2023-05-09T02:49:22.807Z,94867.00
2023-05-09T02:50:13.184Z,94869.00
2023-05-09T02:51:12.156Z,94871.00
2023-05-09T02:52:12.150Z,94869.00
2023-05-09T02:53:12.167Z,94873.00
2023-05-09T02:54:12.134Z,94869.00
2023-05-09T02:55:12.320Z,94869.00
2023-05-09T02:56:12.115Z,94871.00
2023-05-09T02:57:12.112Z,94869.00
2023-05-09T02:58:14.842Z,94871.00
2023-05-09T02:59:12.091Z,94867.00
2023-05-09T03:00:12.092Z,94869.00
2023-05-09T03:01:12.083Z,94869.00
2023-05-09T03:02:12.085Z,94865.00
2023-05-09T03:03:12.266Z,94867.00
2023-05-09T03:04:12.080Z,94865.00
2023-05-09T03:05:12.094Z,94865.00
2023-05-09T03:06:12.067Z,94867.00
2023-05-09T03:07:12.050Z,94867.00
2023-05-09T03:08:12.048Z,94867.00
2023-05-09T03:09:12.032Z,94865.00
2023-05-09T03:10:12.019Z,94867.00
2023-05-09T03:11:12.006Z,94863.00
2023-05-09T03:12:12.021Z,94865.00
2023-05-09T03:13:12.042Z,94863.00
2023-05-09T03:14:12.003Z,94863.00
2023-05-09T03:15:12.156Z,94865.00
2023-05-09T03:16:12.026Z,94867.00
2023-05-09T03:17:11.968Z,94869.00
2023-05-09T03:18:12.020Z,94867.00
2023-05-09T03:19:12.035Z,94865.00
2023-05-09T03:20:11.937Z,94863.00
2023-05-09T03:21:11.944Z,94865.00
2023-05-09T03:22:11.947Z,94865.00
2023-05-09T03:23:11.938Z,94865.00
2023-05-09T03:24:11.926Z,94867.00
2023-05-09T03:25:11.984Z,94863.00
2023-05-09T03:26:11.908Z,94865.00
2023-05-09T03:27:11.894Z,94861.00
2023-05-09T03:28:11.887Z,94861.00
2023-05-09T03:29:11.877Z,94857.00
2023-05-09T03:30:11.878Z,94857.00
2023-05-09T03:31:11.968Z,94853.00
2023-05-09T03:32:13.392Z,94855.00
2023-05-09T03:33:11.859Z,94853.00
2023-05-09T03:34:11.856Z,94853.00
2023-05-09T03:35:11.966Z,94853.00
2023-05-09T03:36:11.840Z,94851.00
2023-05-09T03:37:11.815Z,94851.00
2023-05-09T03:38:11.815Z,94851.00
2023-05-09T03:39:11.812Z,94851.00
2023-05-09T03:40:11.796Z,94853.00
2023-05-09T03:41:11.788Z,94853.00
2023-05-09T03:42:11.769Z,94851.00
2023-05-09T03:43:11.778Z,94851.00
2023-05-09T03:44:11.780Z,94853.00
2023-05-09T03:45:11.823Z,94853.00
2023-05-09T03:46:11.777Z,94855.00
2023-05-09T03:47:11.769Z,94855.00
2023-05-09T03:48:11.791Z,94853.00
2023-05-09T03:49:11.737Z,94855.00
2023-05-09T03:50:11.738Z,94853.00
2023-05-09T03:51:11.809Z,94853.00
2023-05-09T03:52:11.713Z,94855.00
2023-05-09T03:53:11.718Z,94855.00
2023-05-09T03:54:11.696Z,94855.00
2023-05-09T03:55:11.721Z,94851.00
2023-05-09T03:56:11.698Z,94849.00
2023-05-09T03:57:11.699Z,94849.00
2023-05-09T03:58:11.690Z,94849.00
2023-05-09T03:59:11.669Z,94848.00
2023-05-09T04:00:11.655Z,94849.00
2023-05-09T04:01:11.644Z,94851.00
2023-05-09T04:02:11.677Z,94848.00
2023-05-09T04:03:11.702Z,94849.00
2023-05-09T04:04:11.710Z,94851.00
2023-05-09T04:05:11.683Z,94851.00
2023-05-09T04:06:11.612Z,94851.00
2023-05-09T04:07:11.693Z,94851.00
2023-05-09T04:08:11.602Z,94853.00
2023-05-09T04:09:11.603Z,94855.00
2023-05-09T04:10:11.615Z,94853.00
2023-05-09T04:11:11.594Z,94855.00
2023-05-09T04:12:11.600Z,94853.00
2023-05-09T04:13:11.639Z,94853.00
2023-05-09T04:14:11.552Z,94853.00
2023-05-09T04:15:11.688Z,94851.00
2023-05-09T04:16:11.562Z,94849.00
2023-05-09T04:17:11.543Z,94851.00
2023-05-09T04:18:11.545Z,94849.00
2023-05-09T04:19:11.514Z,94849.00
2023-05-09T04:20:11.526Z,94849.00
2023-05-09T04:21:11.505Z,94851.00
2023-05-09T04:22:11.559Z,94849.00
2023-05-09T04:23:11.576Z,94853.00
2023-05-09T04:24:11.487Z,94855.00
2023-05-09T04:25:11.476Z,94857.00
2023-05-09T04:26:11.467Z,94857.00
2023-05-09T04:27:11.456Z,94855.00
2023-05-09T04:28:11.472Z,94853.00
2023-05-09T04:29:11.458Z,94855.00
2023-05-09T04:30:11.475Z,94855.00
2023-05-09T04:31:11.492Z,94855.00
2023-05-09T04:32:11.462Z,94857.00
2023-05-09T04:33:11.424Z,94855.00
2023-05-09T04:34:11.418Z,94855.00
2023-05-09T04:35:11.429Z,94853.00
2023-05-09T04:36:11.415Z,94851.00
2023-05-09T04:37:11.394Z,94851.00
2023-05-09T04:38:11.399Z,94849.00
2023-05-09T04:39:11.481Z,94851.00
2023-05-09T04:40:11.377Z,94849.00
2023-05-09T04:41:11.397Z,94849.00
2023-05-09T04:42:11.378Z,94848.00
2023-05-09T04:43:11.380Z,94848.00
2023-05-09T04:44:11.338Z,94846.00
2023-05-09T04:45:11.391Z,94848.00
2023-05-09T04:46:11.374Z,94848.00
2023-05-09T04:47:11.324Z,94848.00
2023-05-09T04:48:11.322Z,94846.00
2023-05-09T04:49:11.303Z,94849.00
2023-05-09T04:50:11.321Z,94848.00
2023-05-09T04:51:11.321Z,94848.00
2023-05-09T04:52:11.295Z,94848.00
2023-05-09T04:53:11.290Z,94853.00
2023-05-09T04:54:11.291Z,94848.00
2023-05-09T04:55:11.344Z,94849.00
2023-05-09T04:56:11.254Z,94848.00
2023-05-09T04:57:17.867Z,94849.00
2023-05-09T04:58:12.259Z,94853.00
2023-05-09T04:59:11.255Z,94849.00
2023-05-09T05:00:11.248Z,94849.00
2023-05-09T05:01:11.244Z,94848.00
2023-05-09T05:02:11.217Z,94849.00
2023-05-09T05:03:11.265Z,94846.00
2023-05-09T05:04:11.256Z,94846.00
2023-05-09T05:05:13.362Z,94842.00
2023-05-09T05:06:11.191Z,94844.00
2023-05-09T05:07:11.198Z,94842.00
2023-05-09T05:08:11.191Z,94842.00
2023-05-09T05:09:11.189Z,94842.00
2023-05-09T05:10:11.162Z,94844.00
2023-05-09T05:11:11.236Z,94842.00
2023-05-09T05:12:11.141Z,94848.00
2023-05-09T05:13:11.196Z,94846.00
2023-05-09T05:14:11.174Z,94846.00
2023-05-09T05:15:11.138Z,94848.00
2023-05-09T05:16:11.167Z,94842.00
2023-05-09T05:17:11.102Z,94844.00
2023-05-09T05:18:11.124Z,94846.00
2023-05-09T05:19:11.180Z,94844.00
2023-05-09T05:20:11.264Z,94842.00
2023-05-09T05:21:11.286Z,94844.00
2023-05-09T05:22:11.358Z,94844.00
2023-05-09T05:23:11.393Z,94846.00
2023-05-09T05:24:11.475Z,94846.00
2023-05-09T05:25:11.490Z,94846.00
2023-05-09T05:26:11.556Z,94844.00
2023-05-09T05:27:11.650Z,94842.00
2023-05-09T05:28:11.636Z,94844.00
2023-05-09T05:29:11.707Z,94842.00
2023-05-09T05:30:11.661Z,94846.00
2023-05-09T05:31:11.762Z,94844.00
2023-05-09T05:32:11.812Z,94846.00
2023-05-09T05:33:11.865Z,94846.00
2023-05-09T05:34:12.503Z,94848.00
2023-05-09T05:35:12.124Z,94846.00
2023-05-09T05:36:12.043Z,94846.00
2023-05-09T05:37:12.129Z,94848.00
2023-05-09T05:38:12.258Z,94848.00
2023-05-09T05:39:12.215Z,94846.00
2023-05-09T05:40:12.257Z,94844.00
2023-05-09T05:41:12.388Z,94846.00
2023-05-09T05:42:12.432Z,94844.00
2023-05-09T05:43:12.517Z,94844.00
2023-05-09T05:44:12.738Z,94842.00
2023-05-09T05:45:12.649Z,94842.00
2023-05-09T05:46:12.633Z,94842.00
2023-05-09T05:47:12.592Z,94844.00
2023-05-09T05:48:13.200Z,94846.00
2023-05-09T05:49:12.690Z,94844.00
2023-05-09T05:50:12.679Z,94846.00
2023-05-09T05:51:12.745Z,94849.00
2023-05-09T05:52:12.766Z,94848.00
2023-05-09T05:53:12.812Z,94846.00
2023-05-09T05:54:12.862Z,94849.00
2023-05-09T05:55:13.046Z,94842.00
2023-05-09T05:56:12.926Z,94842.00
2023-05-09T05:57:12.973Z,94840.00
2023-05-09T05:58:12.999Z,94840.00
2023-05-09T05:59:13.664Z,94838.00
2023-05-09T06:00:13.101Z,94836.00
2023-05-09T06:01:13.470Z,94834.00
2023-05-09T06:02:13.212Z,94832.00
2023-05-09T06:03:13.310Z,94836.00
2023-05-09T06:04:13.381Z,94834.00
2023-05-09T06:05:13.476Z,94838.00
2023-05-09T06:06:13.351Z,94836.00
2023-05-09T06:07:13.420Z,94836.00
2023-05-09T06:08:13.545Z,94834.00
2023-05-09T06:09:13.535Z,94840.00
2023-05-09T06:10:13.567Z,94838.00
2023-05-09T06:11:13.637Z,94840.00
2023-05-09T06:12:13.702Z,94838.00
2023-05-09T06:13:14.284Z,94838.00
2023-05-09T06:14:14.214Z,94838.00
2023-05-09T06:15:14.234Z,94840.00
2023-05-09T06:16:19.178Z,94838.00
2023-05-09T06:17:14.974Z,94842.00
2023-05-09T06:18:13.950Z,94840.00
2023-05-09T06:19:14.209Z,94840.00
2023-05-09T06:20:13.899Z,94840.00
2023-05-09T06:21:13.910Z,94844.00
2023-05-09T06:22:13.911Z,94842.00
2023-05-09T06:23:13.890Z,94846.00
2023-05-09T06:24:23.336Z,94844.00
2023-05-09T06:25:15.175Z,94842.00
2023-05-09T06:26:13.875Z,94844.00
2023-05-09T06:27:14.063Z,94840.00
2023-05-09T06:28:13.849Z,94840.00
2023-05-09T06:29:13.868Z,94834.00
2023-05-09T06:30:24.785Z,94834.00
2023-05-09T06:31:14.894Z,94834.00
2023-05-09T06:32:13.830Z,94832.00
2023-05-09T06:33:13.868Z,94826.00
2023-05-09T06:34:14.239Z,94828.00
2023-05-09T06:35:14.006Z,94828.00
2023-05-09T06:36:13.814Z,94826.00
2023-05-09T06:37:13.844Z,94824.00
2023-05-09T06:38:14.711Z,94822.00
2023-05-09T06:39:14.226Z,94822.00
2023-05-09T06:40:13.800Z,94824.00
2023-05-09T06:41:13.783Z,94822.00
2023-05-09T06:42:13.788Z,94822.00
2023-05-09T06:43:13.745Z,94818.00
2023-05-09T06:44:13.811Z,94818.00
2023-05-09T06:45:13.982Z,94818.00
2023-05-09T06:46:13.837Z,94816.00
2023-05-09T06:47:13.883Z,94814.00
2023-05-09T06:48:14.241Z,94816.00
2023-05-09T06:49:13.888Z,94816.00
2023-05-09T06:50:13.932Z,94812.00
2023-05-09T06:51:13.956Z,94810.00
2023-05-09T06:52:13.994Z,94812.00
2023-05-09T06:53:14.313Z,94810.00
2023-05-09T06:54:14.030Z,94810.00
2023-05-09T06:55:14.261Z,94810.00
2023-05-09T06:56:14.079Z,94808.00
2023-05-09T06:57:14.249Z,94808.00
2023-05-09T06:58:14.369Z,94808.00
2023-05-09T06:59:14.315Z,94810.00
2023-05-09T07:00:14.196Z,94808.00
2023-05-09T07:01:14.374Z,94810.00
2023-05-09T07:02:14.277Z,94810.00
2023-05-09T07:03:14.287Z,94802.00
2023-05-09T07:04:14.290Z,94802.00
2023-05-09T07:05:14.687Z,94802.00
2023-05-09T07:06:14.327Z,94802.00
2023-05-09T07:07:14.331Z,94804.00
2023-05-09T07:08:14.342Z,94804.00
2023-05-09T07:09:14.349Z,94806.00
2023-05-09T07:10:14.331Z,94804.00
2023-05-09T07:11:14.352Z,94802.00
2023-05-09T07:12:14.355Z,94806.00
2023-05-09T07:13:14.426Z,94804.00
2023-05-09T07:14:14.768Z,94802.00
2023-05-09T07:15:16.895Z,94802.00
2023-05-09T07:16:15.444Z,94797.00
2023-05-09T07:17:22.971Z,94802.00
2023-05-09T07:18:15.596Z,94799.00
2023-05-09T07:19:14.869Z,94799.00
2023-05-09T07:20:14.410Z,94799.00
2023-05-09T07:21:14.376Z,94799.00
2023-05-09T07:22:14.394Z,94799.00
2023-05-09T07:23:15.222Z,94795.00
2023-05-09T07:24:18.973Z,94793.00
2023-05-09T07:25:14.597Z,94791.00
2023-05-09T07:26:14.348Z,94789.00
2023-05-09T07:27:14.325Z,94787.00
2023-05-09T07:28:14.313Z,94789.00
2023-05-09T07:29:14.747Z,94787.00
2023-05-09T07:30:14.380Z,94789.00
2023-05-09T07:31:14.324Z,94789.00
2023-05-09T07:32:14.342Z,94789.00
2023-05-09T07:33:14.856Z,94787.00
2023-05-09T07:34:14.745Z,94787.00
2023-05-09T07:35:14.707Z,94783.00
2023-05-09T07:36:14.275Z,94783.00
2023-05-09T07:37:15.411Z,94781.00
2023-05-09T07:38:14.780Z,94781.00
2023-05-09T07:39:14.753Z,94781.00
2023-05-09T07:40:14.640Z,94781.00
2023-05-09T07:41:14.271Z,94779.00
2023-05-09T07:42:14.302Z,94781.00
2023-05-09T07:43:14.269Z,94779.00
2023-05-09T07:44:14.272Z,94781.00
2023-05-09T07:45:14.458Z,94773.00
2023-05-09T07:46:14.319Z,94771.00
2023-05-09T07:47:14.263Z,94775.00
2023-05-09T07:48:14.262Z,94771.00
2023-05-09T07:49:14.250Z,94767.00
2023-05-09T07:50:14.282Z,94769.00
2023-05-09T07:51:14.359Z,94769.00
2023-05-09T07:52:14.285Z,94765.00
2023-05-09T07:53:14.274Z,94765.00
2023-05-09T07:54:14.773Z,94761.00
2023-05-09T07:55:14.592Z,94761.00
2023-05-09T07:56:14.296Z,94759.00
2023-05-09T07:57:14.389Z,94757.00
2023-05-09T07:58:14.450Z,94755.00
2023-05-09T07:59:14.759Z,94750.00
2023-05-09T08:00:14.575Z,94750.00
2023-05-09T08:01:14.689Z,94746.00
2023-05-09T08:02:14.685Z,94740.00
2023-05-09T08:03:14.846Z,94744.00
2023-05-09T08:04:14.768Z,94740.00
2023-05-09T08:05:14.950Z,94738.00
2023-05-09T08:06:14.814Z,94742.00
2023-05-09T08:07:14.896Z,94744.00
2023-05-09T08:08:14.916Z,94740.00
2023-05-09T08:09:14.968Z,94742.00
2023-05-09T08:10:15.034Z,94738.00
2023-05-09T08:11:15.043Z,94734.00
2023-05-09T08:12:15.107Z,94734.00
2023-05-09T08:13:15.155Z,94732.00
2023-05-09T08:14:15.704Z,94728.00
2023-05-09T08:15:15.373Z,94726.00
2023-05-09T08:16:15.364Z,94720.00
2023-05-09T08:17:15.277Z,94720.00
2023-05-09T08:18:15.314Z,94718.00
2023-05-09T08:19:15.814Z,94718.00
2023-05-09T08:20:15.370Z,94716.00
2023-05-09T08:21:15.391Z,94714.00
2023-05-09T08:22:15.433Z,94712.00
2023-05-09T08:23:15.477Z,94714.00
2023-05-09T08:24:15.494Z,94710.00
2023-05-09T08:25:15.689Z,94710.00
2023-05-09T08:26:15.545Z,94707.00
2023-05-09T08:27:15.672Z,94707.00
2023-05-09T08:28:15.569Z,94705.00
2023-05-09T08:29:15.589Z,94699.00
2023-05-09T08:30:15.594Z,94697.00
2023-05-09T08:31:15.652Z,94691.00
2023-05-09T08:32:15.694Z,94687.00
2023-05-09T08:33:15.635Z,94685.00
2023-05-09T08:34:15.726Z,94687.00
2023-05-09T08:35:15.934Z,94685.00
2023-05-09T08:36:15.812Z,94683.00
2023-05-09T08:37:15.814Z,94683.00
2023-05-09T08:38:15.853Z,94685.00
2023-05-09T08:39:16.366Z,94685.00
2023-05-09T08:40:16.177Z,94685.00
2023-05-09T08:41:16.025Z,94683.00
2023-05-09T08:42:16.076Z,94683.00
2023-05-09T08:43:16.092Z,94685.00
2023-05-09T08:44:16.271Z,94681.00
2023-05-09T08:45:16.216Z,94683.00
2023-05-09T08:46:16.294Z,94679.00
2023-05-09T08:47:16.332Z,94683.00
2023-05-09T08:48:16.389Z,94681.00
2023-05-09T08:49:16.751Z,94677.00
2023-05-09T08:50:16.589Z,94673.00
2023-05-09T08:51:16.522Z,94671.00
2023-05-09T08:52:16.586Z,94667.00
2023-05-09T08:53:16.613Z,94667.00
2023-05-09T08:54:16.761Z,94665.00
2023-05-09T08:55:16.690Z,94661.00
2023-05-09T08:56:16.625Z,94659.00
2023-05-09T08:57:16.626Z,94657.00
2023-05-09T08:58:16.651Z,94659.00
2023-05-09T08:59:16.744Z,94659.00
2023-05-09T09:00:19.519Z,94659.00
2023-05-09T09:01:16.787Z,94655.00
2023-05-09T09:02:16.782Z,94653.00
2023-05-09T09:03:16.757Z,94650.00
2023-05-09T09:04:16.807Z,94648.00
2023-05-09T09:05:34.624Z,94644.00
2023-05-09T09:06:17.718Z,94640.00
2023-05-09T09:07:16.708Z,94638.00
2023-05-09T09:08:16.713Z,94636.00
2023-05-09T09:09:16.806Z,94636.00
2023-05-09T09:10:16.826Z,94636.00
2023-05-09T09:11:16.761Z,94638.00
2023-05-09T09:12:16.696Z,94636.00
2023-05-09T09:13:16.771Z,94636.00
2023-05-09T09:14:16.785Z,94634.00
2023-05-09T09:15:16.786Z,94632.00
2023-05-09T09:16:16.874Z,94632.00
2023-05-09T09:17:16.900Z,94632.00
2023-05-09T09:18:16.976Z,94618.00
2023-05-09T09:19:17.021Z,94622.00
2023-05-09T09:20:17.196Z,94616.00
2023-05-09T09:21:17.182Z,94614.00
2023-05-09T09:22:17.210Z,94612.00
2023-05-09T09:23:17.236Z,94612.00
2023-05-09T09:24:17.305Z,94608.00
2023-05-09T09:25:17.336Z,94607.00
2023-05-09T09:26:17.416Z,94605.00
2023-05-09T09:27:17.528Z,94599.00
2023-05-09T09:28:17.520Z,94599.00
2023-05-09T09:29:17.792Z,94591.00
2023-05-09T09:30:17.649Z,94593.00
2023-05-09T09:31:17.703Z,94591.00
2023-05-09T09:32:17.742Z,94591.00
2023-05-09T09:33:17.711Z,94589.00
2023-05-09T09:34:17.820Z,94587.00
2023-05-09T09:35:17.781Z,94583.00
2023-05-09T09:36:17.798Z,94585.00
2023-05-09T09:37:17.823Z,94581.00
2023-05-09T09:38:17.819Z,94575.00
2023-05-09T09:39:17.903Z,94575.00
2023-05-09T09:40:17.992Z,94569.00
2023-05-09T09:41:17.846Z,94567.00
2023-05-09T09:42:17.883Z,94567.00
2023-05-09T09:43:17.930Z,94563.00
2023-05-09T09:44:18.281Z,94563.00
2023-05-09T09:45:17.869Z,94557.00
2023-05-09T09:46:17.906Z,94557.00
2023-05-09T09:47:17.867Z,94555.00
2023-05-09T09:48:18.310Z,94553.00
2023-05-09T09:49:18.333Z,94550.00
2023-05-09T09:50:18.110Z,94548.00
2023-05-09T09:51:17.946Z,94546.00
2023-05-09T09:52:17.979Z,94540.00
2023-05-09T09:53:18.016Z,94544.00
2023-05-09T09:54:18.317Z,94540.00
2023-05-09T09:55:18.092Z,94542.00
2023-05-09T09:56:18.084Z,94534.00
2023-05-09T09:57:18.115Z,94530.00
2023-05-09T09:58:18.240Z,94530.00
2023-05-09T09:59:18.309Z,94526.00
2023-05-09T10:00:18.271Z,94526.00
2023-05-09T10:01:18.346Z,94524.00
2023-05-09T10:02:18.236Z,94526.00
2023-05-09T10:03:18.348Z,94524.00
2023-05-09T10:04:18.332Z,94520.00
2023-05-09T10:05:18.246Z,94520.00
2023-05-09T10:06:18.255Z,94518.00
2023-05-09T10:07:18.289Z,94518.00
2023-05-09T10:08:18.322Z,94514.00
2023-05-09T10:09:18.367Z,94514.00
2023-05-09T10:10:18.400Z,94512.00
2023-05-09T10:11:18.452Z,94510.00
2023-05-09T10:12:18.497Z,94506.00
2023-05-09T10:13:18.655Z,94506.00
2023-05-09T10:14:18.816Z,94501.00
2023-05-09T10:15:18.755Z,94503.00
2023-05-09T10:16:21.466Z,94499.00
2023-05-09T10:17:19.777Z,94497.00
2023-05-09T10:18:18.863Z,94493.00
2023-05-09T10:19:18.895Z,94489.00
2023-05-09T10:20:18.894Z,94485.00
2023-05-09T10:21:18.740Z,94481.00
2023-05-09T10:22:18.709Z,94481.00
2023-05-09T10:23:18.694Z,94483.00
2023-05-09T10:24:18.838Z,94483.00
2023-05-09T10:25:18.652Z,94477.00
2023-05-09T10:26:18.720Z,94479.00
2023-05-09T10:27:18.785Z,94477.00
2023-05-09T10:28:18.824Z,94475.00
2023-05-09T10:29:18.893Z,94471.00
2023-05-09T10:30:18.961Z,94469.00
2023-05-09T10:31:19.067Z,94469.00
2023-05-09T10:32:18.976Z,94469.00
2023-05-09T10:33:19.002Z,94469.00
2023-05-09T10:34:19.339Z,94467.00
2023-05-09T10:35:19.009Z,94463.00
2023-05-09T10:36:19.041Z,94458.00
2023-05-09T10:37:19.057Z,94458.00
2023-05-09T10:38:19.115Z,94458.00
2023-05-09T10:39:19.373Z,94456.00
2023-05-09T10:40:19.117Z,94448.00
2023-05-09T10:41:19.158Z,94446.00
2023-05-09T10:42:19.139Z,94448.00
2023-05-09T10:43:19.160Z,94446.00
2023-05-09T10:44:19.165Z,94440.00
2023-05-09T10:45:19.306Z,94438.00
2023-05-09T10:46:19.233Z,94434.00
2023-05-09T10:47:19.320Z,94434.00
2023-05-09T10:48:19.281Z,94424.00
2023-05-09T10:49:20.305Z,94424.00
2023-05-09T10:50:19.347Z,94424.00
2023-05-09T10:51:19.346Z,94418.00
2023-05-09T10:52:19.355Z,94418.00
2023-05-09T10:53:19.381Z,94414.00
2023-05-09T10:54:19.809Z,94412.00
2023-05-09T10:55:19.465Z,94410.00
2023-05-09T10:56:19.484Z,94406.00
2023-05-09T10:57:19.525Z,94404.00
2023-05-09T10:58:19.559Z,94404.00
2023-05-09T10:59:19.820Z,94401.00
2023-05-09T11:00:19.675Z,94401.00
2023-05-09T11:01:19.756Z,94399.00
2023-05-09T11:02:19.720Z,94397.00
2023-05-09T11:03:19.942Z,94393.00
2023-05-09T11:04:19.827Z,94391.00
2023-05-09T11:05:19.812Z,94391.00
2023-05-09T11:06:19.848Z,94389.00
2023-05-09T11:07:19.872Z,94387.00
2023-05-09T11:08:19.910Z,94383.00
2023-05-09T11:09:19.967Z,94381.00
2023-05-09T11:10:20.067Z,94379.00
2023-05-09T11:11:20.037Z,94377.00
2023-05-09T11:12:20.074Z,94373.00
2023-05-09T11:13:20.108Z,94373.00
2023-05-09T11:14:20.349Z,94365.00
2023-05-09T11:15:20.320Z,94365.00
2023-05-09T11:16:20.145Z,94373.00
2023-05-09T11:17:20.158Z,94365.00
2023-05-09T11:18:20.155Z,94363.00
2023-05-09T11:19:20.242Z,94363.00
2023-05-09T11:20:20.163Z,94361.00
2023-05-09T11:21:20.159Z,94356.00
2023-05-09T11:22:20.181Z,94354.00
2023-05-09T11:23:20.184Z,94352.00
2023-05-09T11:24:20.215Z,94346.00
2023-05-09T11:25:20.262Z,94344.00
2023-05-09T11:26:20.304Z,94344.00
2023-05-09T11:27:20.346Z,94342.00
2023-05-09T11:28:20.426Z,94340.00
2023-05-09T11:29:20.463Z,94340.00
2023-05-09T11:30:20.558Z,94340.00
2023-05-09T11:31:20.647Z,94338.00
2023-05-09T11:32:20.649Z,94338.00
2023-05-09T11:33:20.656Z,94336.00
2023-05-09T11:34:20.700Z,94332.00
2023-05-09T11:35:20.896Z,94332.00
2023-05-09T11:36:20.819Z,94330.00
2023-05-09T11:37:20.841Z,94328.00
2023-05-09T11:38:20.939Z,94328.00
2023-05-09T11:39:20.954Z,94324.00
2023-05-09T11:40:21.087Z,94326.00
2023-05-09T11:41:21.075Z,94320.00
2023-05-09T11:42:21.135Z,94322.00
2023-05-09T11:43:21.197Z,94318.00
2023-05-09T11:44:21.240Z,94316.00